EKSD weather

Public forecast

Using degrees Celsius for public forecast. Weather courtesy of forecast.io.

Closest aviation weather report (METAR) to Spjald Airport

Report is more than 2 hours old.

Closest report is Stauning Airport, 8.6 nm (16.0 km) SW. Retrieved 2020/08/14 13:50 UTC (5 hours ago):

EKVJ 141350Z 31012KT CAVOK 26/17 Q1013

Closest aviation forecast (TAF) to Spjald Airport

Closest forecast is Karup Airport, 23.5 nm (43.5 km) ENE. Retrieved 2020/08/14 18:31 UTC (39 minutes ago):

TAF EKKA 141709Z 1418/1518 32005KT 9999 FEW200 BECMG 1423/1502 4000 BR BKN006 TEMPO 1502/1506 0800 FG BKN002 BECMG 1506/1508 26005KT 9999 NSW FEW200